sensor_id;sensor_type;location;lat;lon;timestamp;P1;durP1;ratioP1;P2;durP2;ratioP2
4895;SDS011;2463;49.948;8.472;2023-07-22T00:02:24;89.60;;;4.65;;
4895;SDS011;2463;49.948;8.472;2023-07-22T00:04:50;91.70;;;5.00;;
4895;SDS011;2463;49.948;8.472;2023-07-22T00:07:18;90.10;;;4.78;;
4895;SDS011;2463;49.948;8.472;2023-07-22T00:09:45;89.57;;;4.80;;
4895;SDS011;2463;49.948;8.472;2023-07-22T00:12:11;90.03;;;4.60;;
4895;SDS011;2463;49.948;8.472;2023-07-22T00:14:39;94.38;;;5.10;;
4895;SDS011;2463;49.948;8.472;2023-07-22T00:17:07;89.43;;;5.05;;
4895;SDS011;2463;49.948;8.472;2023-07-22T00:19:34;89.50;;;4.65;;
4895;SDS011;2463;49.948;8.472;2023-07-22T00:22:01;90.32;;;5.05;;
4895;SDS011;2463;49.948;8.472;2023-07-22T00:24:28;91.88;;;5.60;;
4895;SDS011;2463;49.948;8.472;2023-07-22T00:26:55;89.93;;;4.90;;
4895;SDS011;2463;49.948;8.472;2023-07-22T00:29:22;91.18;;;5.38;;
4895;SDS011;2463;49.948;8.472;2023-07-22T00:31:48;90.43;;;5.03;;
4895;SDS011;2463;49.948;8.472;2023-07-22T00:34:15;90.20;;;4.70;;
4895;SDS011;2463;49.948;8.472;2023-07-22T00:36:42;89.97;;;4.70;;
4895;SDS011;2463;49.948;8.472;2023-07-22T00:39:10;92.10;;;4.60;;
4895;SDS011;2463;49.948;8.472;2023-07-22T00:41:40;90.75;;;5.18;;
4895;SDS011;2463;49.948;8.472;2023-07-22T00:44:08;91.05;;;5.05;;
4895;SDS011;2463;49.948;8.472;2023-07-22T00:46:35;89.80;;;4.47;;
4895;SDS011;2463;49.948;8.472;2023-07-22T00:49:02;89.05;;;4.60;;
4895;SDS011;2463;49.948;8.472;2023-07-22T00:51:32;90.13;;;4.43;;
4895;SDS011;2463;49.948;8.472;2023-07-22T00:53:59;89.07;;;4.50;;
4895;SDS011;2463;49.948;8.472;2023-07-22T00:56:26;91.43;;;4.82;;
4895;SDS011;2463;49.948;8.472;2023-07-22T00:58:53;89.22;;;4.70;;
4895;SDS011;2463;49.948;8.472;2023-07-22T01:01:21;89.72;;;4.80;;
4895;SDS011;2463;49.948;8.472;2023-07-22T01:03:48;89.88;;;4.80;;
4895;SDS011;2463;49.948;8.472;2023-07-22T01:06:15;91.97;;;5.57;;
4895;SDS011;2463;49.948;8.472;2023-07-22T01:08:44;91.07;;;4.82;;
4895;SDS011;2463;49.948;8.472;2023-07-22T01:11:13;89.65;;;4.70;;
4895;SDS011;2463;49.948;8.472;2023-07-22T01:13:40;90.15;;;5.00;;
4895;SDS011;2463;49.948;8.472;2023-07-22T01:16:07;89.32;;;4.53;;
4895;SDS011;2463;49.948;8.472;2023-07-22T01:18:33;91.07;;;5.00;;
4895;SDS011;2463;49.948;8.472;2023-07-22T01:21:01;95.97;;;4.88;;
4895;SDS011;2463;49.948;8.472;2023-07-22T01:23:28;89.30;;;4.90;;
4895;SDS011;2463;49.948;8.472;2023-07-22T01:25:55;90.20;;;5.07;;
4895;SDS011;2463;49.948;8.472;2023-07-22T01:28:22;89.68;;;4.50;;
4895;SDS011;2463;49.948;8.472;2023-07-22T01:30:49;90.05;;;4.43;;
4895;SDS011;2463;49.948;8.472;2023-07-22T01:33:16;91.22;;;4.70;;
4895;SDS011;2463;49.948;8.472;2023-07-22T01:35:42;89.32;;;4.80;;
4895;SDS011;2463;49.948;8.472;2023-07-22T01:38:09;92.03;;;5.10;;
4895;SDS011;2463;49.948;8.472;2023-07-22T01:40:36;90.80;;;5.30;;
4895;SDS011;2463;49.948;8.472;2023-07-22T01:43:02;90.32;;;5.00;;
4895;SDS011;2463;49.948;8.472;2023-07-22T01:45:29;90.10;;;4.78;;
4895;SDS011;2463;49.948;8.472;2023-07-22T01:47:56;89.82;;;4.65;;
4895;SDS011;2463;49.948;8.472;2023-07-22T01:50:23;89.55;;;5.07;;
4895;SDS011;2463;49.948;8.472;2023-07-22T01:52:49;91.22;;;4.97;;
4895;SDS011;2463;49.948;8.472;2023-07-22T01:55:16;90.78;;;5.00;;
4895;SDS011;2463;49.948;8.472;2023-07-22T01:57:44;90.25;;;4.80;;
4895;SDS011;2463;49.948;8.472;2023-07-22T02:00:11;91.50;;;5.35;;
4895;SDS011;2463;49.948;8.472;2023-07-22T02:02:38;90.07;;;4.93;;
4895;SDS011;2463;49.948;8.472;2023-07-22T02:05:06;90.43;;;4.60;;
4895;SDS011;2463;49.948;8.472;2023-07-22T02:07:33;90.47;;;5.00;;
4895;SDS011;2463;49.948;8.472;2023-07-22T02:09:59;90.43;;;4.93;;
4895;SDS011;2463;49.948;8.472;2023-07-22T02:12:26;89.85;;;4.55;;
4895;SDS011;2463;49.948;8.472;2023-07-22T02:14:53;90.80;;;5.25;;
4895;SDS011;2463;49.948;8.472;2023-07-22T02:17:19;90.55;;;4.90;;
4895;SDS011;2463;49.948;8.472;2023-07-22T02:19:46;90.38;;;4.85;;
4895;SDS011;2463;49.948;8.472;2023-07-22T02:22:13;91.95;;;5.18;;
4895;SDS011;2463;49.948;8.472;2023-07-22T02:24:40;92.18;;;5.55;;
4895;SDS011;2463;49.948;8.472;2023-07-22T02:27:07;91.35;;;5.30;;
4895;SDS011;2463;49.948;8.472;2023-07-22T02:29:36;91.43;;;5.25;;
4895;SDS011;2463;49.948;8.472;2023-07-22T02:32:03;93.65;;;5.30;;
4895;SDS011;2463;49.948;8.472;2023-07-22T02:34:30;91.88;;;5.30;;
4895;SDS011;2463;49.948;8.472;2023-07-22T02:36:57;90.93;;;5.35;;
4895;SDS011;2463;49.948;8.472;2023-07-22T02:39:24;91.22;;;5.60;;
4895;SDS011;2463;49.948;8.472;2023-07-22T02:41:50;91.68;;;5.45;;
4895;SDS011;2463;49.948;8.472;2023-07-22T02:44:17;90.75;;;4.93;;
4895;SDS011;2463;49.948;8.472;2023-07-22T02:46:44;90.63;;;4.97;;
4895;SDS011;2463;49.948;8.472;2023-07-22T02:49:10;93.40;;;5.05;;
4895;SDS011;2463;49.948;8.472;2023-07-22T02:51:37;91.38;;;4.88;;
4895;SDS011;2463;49.948;8.472;2023-07-22T02:54:04;91.03;;;4.90;;
4895;SDS011;2463;49.948;8.472;2023-07-22T02:56:30;91.32;;;5.22;;
4895;SDS011;2463;49.948;8.472;2023-07-22T02:58:57;90.70;;;4.97;;
4895;SDS011;2463;49.948;8.472;2023-07-22T03:01:24;90.53;;;4.75;;
4895;SDS011;2463;49.948;8.472;2023-07-22T03:03:51;91.18;;;5.05;;
4895;SDS011;2463;49.948;8.472;2023-07-22T03:06:18;92.10;;;5.55;;
4895;SDS011;2463;49.948;8.472;2023-07-22T03:08:44;91.72;;;4.85;;
4895;SDS011;2463;49.948;8.472;2023-07-22T03:11:11;92.15;;;5.13;;
4895;SDS011;2463;49.948;8.472;2023-07-22T03:13:38;93.22;;;5.97;;
4895;SDS011;2463;49.948;8.472;2023-07-22T03:16:05;91.32;;;5.28;;
4895;SDS011;2463;49.948;8.472;2023-07-22T03:18:31;91.72;;;5.28;;
4895;SDS011;2463;49.948;8.472;2023-07-22T03:20:58;91.72;;;5.30;;
4895;SDS011;2463;49.948;8.472;2023-07-22T03:23:25;91.43;;;5.15;;
4895;SDS011;2463;49.948;8.472;2023-07-22T03:25:51;91.55;;;5.10;;
4895;SDS011;2463;49.948;8.472;2023-07-22T03:28:18;92.20;;;5.38;;
4895;SDS011;2463;49.948;8.472;2023-07-22T03:30:45;91.28;;;5.20;;
4895;SDS011;2463;49.948;8.472;2023-07-22T03:33:12;91.55;;;5.22;;
4895;SDS011;2463;49.948;8.472;2023-07-22T03:35:38;92.57;;;5.65;;
4895;SDS011;2463;49.948;8.472;2023-07-22T03:38:07;92.63;;;5.40;;
4895;SDS011;2463;49.948;8.472;2023-07-22T03:40:34;92.32;;;5.25;;
4895;SDS011;2463;49.948;8.472;2023-07-22T03:43:01;91.97;;;5.00;;
4895;SDS011;2463;49.948;8.472;2023-07-22T03:45:27;92.82;;;5.50;;
4895;SDS011;2463;49.948;8.472;2023-07-22T03:47:57;91.80;;;5.25;;
4895;SDS011;2463;49.948;8.472;2023-07-22T03:50:26;91.18;;;5.40;;
4895;SDS011;2463;49.948;8.472;2023-07-22T03:52:53;91.80;;;5.28;;
4895;SDS011;2463;49.948;8.472;2023-07-22T03:55:20;92.50;;;5.30;;
4895;SDS011;2463;49.948;8.472;2023-07-22T03:57:47;93.85;;;5.68;;
4895;SDS011;2463;49.948;8.472;2023-07-22T04:00:14;92.00;;;5.57;;
4895;SDS011;2463;49.948;8.472;2023-07-22T04:02:41;92.78;;;5.60;;
4895;SDS011;2463;49.948;8.472;2023-07-22T04:05:08;91.28;;;4.97;;
4895;SDS011;2463;49.948;8.472;2023-07-22T04:07:35;91.70;;;5.55;;
4895;SDS011;2463;49.948;8.472;2023-07-22T04:10:02;98.32;;;6.05;;
4895;SDS011;2463;49.948;8.472;2023-07-22T04:12:29;93.28;;;5.60;;
4895;SDS011;2463;49.948;8.472;2023-07-22T04:14:56;91.43;;;5.20;;
4895;SDS011;2463;49.948;8.472;2023-07-22T04:17:23;93.70;;;6.13;;
4895;SDS011;2463;49.948;8.472;2023-07-22T04:19:52;92.28;;;5.55;;
4895;SDS011;2463;49.948;8.472;2023-07-22T04:22:22;91.93;;;5.32;;
4895;SDS011;2463;49.948;8.472;2023-07-22T04:24:49;92.47;;;5.70;;
4895;SDS011;2463;49.948;8.472;2023-07-22T04:27:16;92.45;;;5.50;;
4895;SDS011;2463;49.948;8.472;2023-07-22T04:29:43;92.38;;;5.90;;
4895;SDS011;2463;49.948;8.472;2023-07-22T04:32:10;92.38;;;5.60;;
4895;SDS011;2463;49.948;8.472;2023-07-22T04:34:37;91.88;;;5.10;;
4895;SDS011;2463;49.948;8.472;2023-07-22T04:37:04;93.55;;;5.80;;
4895;SDS011;2463;49.948;8.472;2023-07-22T04:39:31;92.50;;;5.38;;
4895;SDS011;2463;49.948;8.472;2023-07-22T04:41:57;92.63;;;5.72;;
4895;SDS011;2463;49.948;8.472;2023-07-22T04:44:24;92.35;;;5.85;;
4895;SDS011;2463;49.948;8.472;2023-07-22T04:46:51;92.47;;;5.57;;
4895;SDS011;2463;49.948;8.472;2023-07-22T04:49:18;91.18;;;5.50;;
4895;SDS011;2463;49.948;8.472;2023-07-22T04:51:45;94.05;;;5.68;;
4895;SDS011;2463;49.948;8.472;2023-07-22T04:54:12;93.03;;;5.43;;
4895;SDS011;2463;49.948;8.472;2023-07-22T04:56:40;91.47;;;5.43;;
4895;SDS011;2463;49.948;8.472;2023-07-22T04:59:08;92.43;;;5.70;;
4895;SDS011;2463;49.948;8.472;2023-07-22T05:01:35;92.80;;;5.45;;
4895;SDS011;2463;49.948;8.472;2023-07-22T05:04:02;92.63;;;5.88;;
4895;SDS011;2463;49.948;8.472;2023-07-22T05:06:29;92.47;;;5.70;;
4895;SDS011;2463;49.948;8.472;2023-07-22T05:08:56;92.05;;;6.03;;
4895;SDS011;2463;49.948;8.472;2023-07-22T05:11:23;91.80;;;5.60;;
4895;SDS011;2463;49.948;8.472;2023-07-22T05:13:49;93.65;;;6.00;;
4895;SDS011;2463;49.948;8.472;2023-07-22T05:16:17;92.97;;;5.90;;
4895;SDS011;2463;49.948;8.472;2023-07-22T05:18:44;93.65;;;6.30;;
4895;SDS011;2463;49.948;8.472;2023-07-22T05:21:11;92.90;;;5.72;;
4895;SDS011;2463;49.948;8.472;2023-07-22T05:23:38;92.70;;;5.60;;
4895;SDS011;2463;49.948;8.472;2023-07-22T05:26:05;92.03;;;5.82;;
4895;SDS011;2463;49.948;8.472;2023-07-22T05:28:31;93.78;;;6.10;;
4895;SDS011;2463;49.948;8.472;2023-07-22T05:30:58;93.15;;;6.43;;
4895;SDS011;2463;49.948;8.472;2023-07-22T05:33:25;93.57;;;6.40;;
4895;SDS011;2463;49.948;8.472;2023-07-22T05:35:52;92.55;;;6.20;;
4895;SDS011;2463;49.948;8.472;2023-07-22T05:38:18;92.03;;;6.00;;
4895;SDS011;2463;49.948;8.472;2023-07-22T05:40:45;92.28;;;5.90;;
4895;SDS011;2463;49.948;8.472;2023-07-22T05:43:12;93.85;;;6.22;;
4895;SDS011;2463;49.948;8.472;2023-07-22T05:45:38;91.82;;;5.75;;
4895;SDS011;2463;49.948;8.472;2023-07-22T05:48:05;92.53;;;5.82;;
4895;SDS011;2463;49.948;8.472;2023-07-22T05:50:32;91.85;;;6.38;;
4895;SDS011;2463;49.948;8.472;2023-07-22T05:52:59;93.85;;;6.72;;
4895;SDS011;2463;49.948;8.472;2023-07-22T05:55:25;91.85;;;5.97;;
4895;SDS011;2463;49.948;8.472;2023-07-22T05:57:53;91.57;;;6.28;;
4895;SDS011;2463;49.948;8.472;2023-07-22T06:00:20;91.72;;;6.20;;
4895;SDS011;2463;49.948;8.472;2023-07-22T06:02:47;92.25;;;5.72;;
4895;SDS011;2463;49.948;8.472;2023-07-22T06:05:15;90.57;;;5.60;;
4895;SDS011;2463;49.948;8.472;2023-07-22T06:07:42;91.38;;;5.68;;
4895;SDS011;2463;49.948;8.472;2023-07-22T06:10:09;90.20;;;5.45;;
4895;SDS011;2463;49.948;8.472;2023-07-22T06:12:36;91.53;;;5.93;;
4895;SDS011;2463;49.948;8.472;2023-07-22T06:15:03;90.28;;;5.18;;
4895;SDS011;2463;49.948;8.472;2023-07-22T06:17:30;92.20;;;6.18;;
4895;SDS011;2463;49.948;8.472;2023-07-22T06:19:57;91.47;;;5.93;;
4895;SDS011;2463;49.948;8.472;2023-07-22T06:22:24;90.30;;;5.47;;
4895;SDS011;2463;49.948;8.472;2023-07-22T06:24:51;90.50;;;5.65;;
4895;SDS011;2463;49.948;8.472;2023-07-22T06:27:18;92.20;;;5.65;;
4895;SDS011;2463;49.948;8.472;2023-07-22T06:29:45;92.00;;;6.10;;
4895;SDS011;2463;49.948;8.472;2023-07-22T06:32:11;89.10;;;5.13;;
4895;SDS011;2463;49.948;8.472;2023-07-22T06:34:38;91.60;;;5.10;;
4895;SDS011;2463;49.948;8.472;2023-07-22T06:37:05;89.43;;;5.55;;
4895;SDS011;2463;49.948;8.472;2023-07-22T06:39:32;88.85;;;5.30;;
4895;SDS011;2463;49.948;8.472;2023-07-22T06:41:58;89.30;;;5.68;;
4895;SDS011;2463;49.948;8.472;2023-07-22T06:44:25;88.88;;;5.05;;
4895;SDS011;2463;49.948;8.472;2023-07-22T06:46:52;87.82;;;4.55;;
4895;SDS011;2463;49.948;8.472;2023-07-22T06:49:19;89.57;;;4.70;;
4895;SDS011;2463;49.948;8.472;2023-07-22T06:51:45;89.43;;;4.97;;
4895;SDS011;2463;49.948;8.472;2023-07-22T06:54:12;90.20;;;5.22;;
4895;SDS011;2463;49.948;8.472;2023-07-22T06:56:39;88.75;;;4.90;;
4895;SDS011;2463;49.948;8.472;2023-07-22T06:59:06;88.03;;;4.55;;
4895;SDS011;2463;49.948;8.472;2023-07-22T07:01:32;89.40;;;4.80;;
4895;SDS011;2463;49.948;8.472;2023-07-22T07:03:59;89.40;;;5.65;;
4895;SDS011;2463;49.948;8.472;2023-07-22T07:06:28;88.80;;;5.40;;
4895;SDS011;2463;49.948;8.472;2023-07-22T07:08:55;87.95;;;4.75;;
4895;SDS011;2463;49.948;8.472;2023-07-22T07:11:22;88.95;;;5.05;;
4895;SDS011;2463;49.948;8.472;2023-07-22T07:13:48;88.20;;;4.70;;
4895;SDS011;2463;49.948;8.472;2023-07-22T07:16:25;88.93;;;5.00;;
4895;SDS011;2463;49.948;8.472;2023-07-22T07:18:54;86.97;;;4.80;;
4895;SDS011;2463;49.948;8.472;2023-07-22T07:21:22;89.07;;;4.90;;
4895;SDS011;2463;49.948;8.472;2023-07-22T07:23:49;87.77;;;4.80;;
4895;SDS011;2463;49.948;8.472;2023-07-22T07:26:18;85.70;;;4.10;;
4895;SDS011;2463;49.948;8.472;2023-07-22T07:28:45;83.43;;;3.93;;
4895;SDS011;2463;49.948;8.472;2023-07-22T07:31:13;84.80;;;4.13;;
4895;SDS011;2463;49.948;8.472;2023-07-22T07:33:40;84.60;;;4.17;;
4895;SDS011;2463;49.948;8.472;2023-07-22T07:36:06;84.40;;;4.57;;
4895;SDS011;2463;49.948;8.472;2023-07-22T07:38:33;84.67;;;4.30;;
4895;SDS011;2463;49.948;8.472;2023-07-22T07:41:01;83.07;;;3.63;;
4895;SDS011;2463;49.948;8.472;2023-07-22T07:43:30;83.57;;;4.23;;
4895;SDS011;2463;49.948;8.472;2023-07-22T07:46:12;83.07;;;3.83;;
4895;SDS011;2463;49.948;8.472;2023-07-22T07:49:08;83.57;;;4.27;;
4895;SDS011;2463;49.948;8.472;2023-07-22T07:51:35;83.60;;;4.03;;
4895;SDS011;2463;49.948;8.472;2023-07-22T07:54:02;82.70;;;3.60;;
4895;SDS011;2463;49.948;8.472;2023-07-22T07:56:30;83.67;;;3.70;;
4895;SDS011;2463;49.948;8.472;2023-07-22T07:58:57;83.27;;;4.03;;
4895;SDS011;2463;49.948;8.472;2023-07-22T08:01:24;83.33;;;4.20;;
4895;SDS011;2463;49.948;8.472;2023-07-22T08:03:50;83.27;;;4.10;;
4895;SDS011;2463;49.948;8.472;2023-07-22T08:06:17;82.77;;;3.77;;
4895;SDS011;2463;49.948;8.472;2023-07-22T08:08:45;82.17;;;3.67;;
4895;SDS011;2463;49.948;8.472;2023-07-22T08:11:13;83.67;;;4.07;;
4895;SDS011;2463;49.948;8.472;2023-07-22T08:13:41;82.37;;;3.60;;
4895;SDS011;2463;49.948;8.472;2023-07-22T08:16:09;81.40;;;3.73;;
4895;SDS011;2463;49.948;8.472;2023-07-22T08:18:37;82.07;;;3.50;;
4895;SDS011;2463;49.948;8.472;2023-07-22T08:21:04;82.07;;;3.40;;
4895;SDS011;2463;49.948;8.472;2023-07-22T08:23:35;85.30;;;3.67;;
4895;SDS011;2463;49.948;8.472;2023-07-22T08:26:03;82.70;;;3.60;;
4895;SDS011;2463;49.948;8.472;2023-07-22T08:28:33;82.63;;;4.10;;
4895;SDS011;2463;49.948;8.472;2023-07-22T08:31:00;82.20;;;3.67;;
4895;SDS011;2463;49.948;8.472;2023-07-22T08:33:28;82.57;;;3.70;;
4895;SDS011;2463;49.948;8.472;2023-07-22T08:36:07;82.10;;;3.87;;
4895;SDS011;2463;49.948;8.472;2023-07-22T08:38:34;83.10;;;3.53;;
4895;SDS011;2463;49.948;8.472;2023-07-22T08:41:01;83.10;;;3.77;;
4895;SDS011;2463;49.948;8.472;2023-07-22T08:43:28;83.00;;;3.60;;
4895;SDS011;2463;49.948;8.472;2023-07-22T08:45:58;81.87;;;3.60;;
4895;SDS011;2463;49.948;8.472;2023-07-22T08:48:29;83.37;;;3.83;;
4895;SDS011;2463;49.948;8.472;2023-07-22T08:50:59;81.80;;;3.53;;
4895;SDS011;2463;49.948;8.472;2023-07-22T08:53:31;81.17;;;3.30;;
4895;SDS011;2463;49.948;8.472;2023-07-22T08:55:59;80.80;;;3.30;;
4895;SDS011;2463;49.948;8.472;2023-07-22T08:58:27;81.10;;;3.50;;
4895;SDS011;2463;49.948;8.472;2023-07-22T09:00:55;83.00;;;3.60;;
4895;SDS011;2463;49.948;8.472;2023-07-22T09:03:23;83.27;;;3.90;;
4895;SDS011;2463;49.948;8.472;2023-07-22T09:05:50;82.67;;;3.73;;
4895;SDS011;2463;49.948;8.472;2023-07-22T09:08:17;80.90;;;3.50;;
4895;SDS011;2463;49.948;8.472;2023-07-22T09:10:44;82.00;;;4.17;;
4895;SDS011;2463;49.948;8.472;2023-07-22T09:13:15;83.10;;;3.90;;
4895;SDS011;2463;49.948;8.472;2023-07-22T09:15:41;82.20;;;3.77;;
4895;SDS011;2463;49.948;8.472;2023-07-22T09:18:09;82.43;;;3.93;;
4895;SDS011;2463;49.948;8.472;2023-07-22T09:20:35;84.27;;;4.40;;
4895;SDS011;2463;49.948;8.472;2023-07-22T09:23:02;84.70;;;4.83;;
4895;SDS011;2463;49.948;8.472;2023-07-22T09:25:39;83.80;;;3.97;;
4895;SDS011;2463;49.948;8.472;2023-07-22T09:28:06;84.27;;;3.83;;
4895;SDS011;2463;49.948;8.472;2023-07-22T09:30:34;82.60;;;4.00;;
4895;SDS011;2463;49.948;8.472;2023-07-22T09:33:03;83.73;;;4.23;;
4895;SDS011;2463;49.948;8.472;2023-07-22T09:35:31;84.97;;;4.43;;
4895;SDS011;2463;49.948;8.472;2023-07-22T09:38:24;85.13;;;4.13;;
4895;SDS011;2463;49.948;8.472;2023-07-22T09:40:52;88.60;;;4.37;;
4895;SDS011;2463;49.948;8.472;2023-07-22T09:43:20;84.57;;;4.53;;
4895;SDS011;2463;49.948;8.472;2023-07-22T09:45:49;84.87;;;4.10;;
4895;SDS011;2463;49.948;8.472;2023-07-22T09:48:16;85.00;;;4.07;;
4895;SDS011;2463;49.948;8.472;2023-07-22T09:50:43;84.50;;;3.60;;
4895;SDS011;2463;49.948;8.472;2023-07-22T09:53:14;85.87;;;3.67;;
4895;SDS011;2463;49.948;8.472;2023-07-22T09:55:42;84.43;;;4.10;;
4895;SDS011;2463;49.948;8.472;2023-07-22T09:58:10;83.77;;;3.90;;
4895;SDS011;2463;49.948;8.472;2023-07-22T10:00:41;84.70;;;4.20;;
4895;SDS011;2463;49.948;8.472;2023-07-22T10:03:12;84.40;;;4.30;;
4895;SDS011;2463;49.948;8.472;2023-07-22T10:05:42;83.87;;;4.13;;
4895;SDS011;2463;49.948;8.472;2023-07-22T10:08:14;86.27;;;5.20;;
4895;SDS011;2463;49.948;8.472;2023-07-22T10:10:45;82.27;;;4.00;;
4895;SDS011;2463;49.948;8.472;2023-07-22T10:13:13;85.70;;;4.40;;
4895;SDS011;2463;49.948;8.472;2023-07-22T10:15:41;83.67;;;3.47;;
4895;SDS011;2463;49.948;8.472;2023-07-22T10:18:08;84.00;;;4.27;;
4895;SDS011;2463;49.948;8.472;2023-07-22T10:20:36;83.27;;;3.97;;
4895;SDS011;2463;49.948;8.472;2023-07-22T10:23:04;83.90;;;4.17;;
4895;SDS011;2463;49.948;8.472;2023-07-22T10:25:33;81.70;;;3.43;;
4895;SDS011;2463;49.948;8.472;2023-07-22T10:28:01;83.37;;;3.53;;
4895;SDS011;2463;49.948;8.472;2023-07-22T10:30:29;82.37;;;3.80;;
4895;SDS011;2463;49.948;8.472;2023-07-22T10:32:56;81.90;;;3.77;;
4895;SDS011;2463;49.948;8.472;2023-07-22T10:35:34;83.33;;;3.50;;
4895;SDS011;2463;49.948;8.472;2023-07-22T10:38:08;87.50;;;3.83;;
4895;SDS011;2463;49.948;8.472;2023-07-22T10:40:46;84.07;;;4.07;;
4895;SDS011;2463;49.948;8.472;2023-07-22T10:43:27;81.97;;;4.00;;
4895;SDS011;2463;49.948;8.472;2023-07-22T10:45:57;84.37;;;4.27;;
4895;SDS011;2463;49.948;8.472;2023-07-22T10:48:34;83.07;;;4.53;;
4895;SDS011;2463;49.948;8.472;2023-07-22T10:51:06;81.77;;;3.60;;
4895;SDS011;2463;49.948;8.472;2023-07-22T10:53:38;83.90;;;4.07;;
4895;SDS011;2463;49.948;8.472;2023-07-22T10:56:15;83.07;;;3.80;;
4895;SDS011;2463;49.948;8.472;2023-07-22T11:01:24;83.60;;;3.97;;
4895;SDS011;2463;49.948;8.472;2023-07-22T11:14:25;84.47;;;3.87;;
4895;SDS011;2463;49.948;8.472;2023-07-22T11:16:53;85.37;;;4.40;;
4895;SDS011;2463;49.948;8.472;2023-07-22T11:19:22;84.87;;;4.10;;
4895;SDS011;2463;49.948;8.472;2023-07-22T11:21:51;83.07;;;4.00;;
4895;SDS011;2463;49.948;8.472;2023-07-22T11:24:19;84.40;;;4.20;;
4895;SDS011;2463;49.948;8.472;2023-07-22T11:26:47;85.30;;;4.50;;
4895;SDS011;2463;49.948;8.472;2023-07-22T11:29:15;84.50;;;3.90;;
4895;SDS011;2463;49.948;8.472;2023-07-22T11:31:44;84.57;;;4.07;;
4895;SDS011;2463;49.948;8.472;2023-07-22T11:34:12;83.90;;;3.67;;
4895;SDS011;2463;49.948;8.472;2023-07-22T11:36:41;85.00;;;3.90;;
4895;SDS011;2463;49.948;8.472;2023-07-22T11:39:08;84.57;;;3.90;;
4895;SDS011;2463;49.948;8.472;2023-07-22T11:41:37;82.97;;;4.33;;
4895;SDS011;2463;49.948;8.472;2023-07-22T11:44:04;83.37;;;3.70;;
4895;SDS011;2463;49.948;8.472;2023-07-22T11:46:46;84.63;;;3.90;;
4895;SDS011;2463;49.948;8.472;2023-07-22T11:49:25;83.40;;;4.00;;
4895;SDS011;2463;49.948;8.472;2023-07-22T11:52:05;83.17;;;4.07;;
4895;SDS011;2463;49.948;8.472;2023-07-22T11:54:34;83.83;;;3.63;;
4895;SDS011;2463;49.948;8.472;2023-07-22T11:59:51;81.60;;;3.50;;
4895;SDS011;2463;49.948;8.472;2023-07-22T12:02:20;82.77;;;3.80;;
4895;SDS011;2463;49.948;8.472;2023-07-22T12:04:52;82.20;;;3.67;;
4895;SDS011;2463;49.948;8.472;2023-07-22T12:07:26;81.87;;;3.70;;
4895;SDS011;2463;49.948;8.472;2023-07-22T12:09:55;82.43;;;3.80;;
4895;SDS011;2463;49.948;8.472;2023-07-22T12:12:32;87.50;;;4.20;;
4895;SDS011;2463;49.948;8.472;2023-07-22T12:15:16;84.37;;;5.40;;
4895;SDS011;2463;49.948;8.472;2023-07-22T12:17:45;84.97;;;4.10;;
4895;SDS011;2463;49.948;8.472;2023-07-22T12:20:12;84.07;;;4.00;;
4895;SDS011;2463;49.948;8.472;2023-07-22T12:22:40;84.77;;;4.43;;
4895;SDS011;2463;49.948;8.472;2023-07-22T12:25:08;85.50;;;3.90;;
4895;SDS011;2463;49.948;8.472;2023-07-22T12:27:36;83.37;;;4.10;;
4895;SDS011;2463;49.948;8.472;2023-07-22T12:30:04;83.77;;;3.67;;
4895;SDS011;2463;49.948;8.472;2023-07-22T12:32:32;81.97;;;3.60;;
4895;SDS011;2463;49.948;8.472;2023-07-22T12:34:59;82.27;;;3.77;;
4895;SDS011;2463;49.948;8.472;2023-07-22T12:37:26;84.13;;;4.10;;
4895;SDS011;2463;49.948;8.472;2023-07-22T12:39:53;82.50;;;4.00;;
4895;SDS011;2463;49.948;8.472;2023-07-22T12:42:19;82.37;;;3.60;;
4895;SDS011;2463;49.948;8.472;2023-07-22T12:44:46;81.90;;;3.60;;
4895;SDS011;2463;49.948;8.472;2023-07-22T12:47:13;86.47;;;3.87;;
4895;SDS011;2463;49.948;8.472;2023-07-22T12:49:39;82.73;;;3.60;;
4895;SDS011;2463;49.948;8.472;2023-07-22T12:52:06;81.73;;;3.77;;
4895;SDS011;2463;49.948;8.472;2023-07-22T12:54:35;82.27;;;3.40;;
4895;SDS011;2463;49.948;8.472;2023-07-22T12:57:02;82.03;;;3.20;;
4895;SDS011;2463;49.948;8.472;2023-07-22T12:59:29;81.50;;;3.43;;
4895;SDS011;2463;49.948;8.472;2023-07-22T13:01:56;80.87;;;3.20;;
4895;SDS011;2463;49.948;8.472;2023-07-22T13:04:24;81.07;;;3.03;;
4895;SDS011;2463;49.948;8.472;2023-07-22T13:06:51;80.77;;;3.03;;
4895;SDS011;2463;49.948;8.472;2023-07-22T13:09:18;80.47;;;3.10;;
4895;SDS011;2463;49.948;8.472;2023-07-22T13:11:45;80.37;;;3.00;;
4895;SDS011;2463;49.948;8.472;2023-07-22T13:14:13;80.67;;;3.30;;
4895;SDS011;2463;49.948;8.472;2023-07-22T13:16:40;81.83;;;3.80;;
4895;SDS011;2463;49.948;8.472;2023-07-22T13:19:07;80.90;;;3.70;;
4895;SDS011;2463;49.948;8.472;2023-07-22T13:21:34;84.40;;;3.70;;
4895;SDS011;2463;49.948;8.472;2023-07-22T13:24:00;80.93;;;3.20;;
4895;SDS011;2463;49.948;8.472;2023-07-22T13:26:27;80.97;;;3.13;;
4895;SDS011;2463;49.948;8.472;2023-07-22T13:28:54;81.80;;;3.53;;
4895;SDS011;2463;49.948;8.472;2023-07-22T13:31:20;80.97;;;3.33;;
4895;SDS011;2463;49.948;8.472;2023-07-22T13:33:47;82.27;;;2.97;;
4895;SDS011;2463;49.948;8.472;2023-07-22T13:36:14;80.53;;;3.20;;
4895;SDS011;2463;49.948;8.472;2023-07-22T13:38:40;82.70;;;3.33;;
4895;SDS011;2463;49.948;8.472;2023-07-22T13:41:07;80.27;;;3.10;;
4895;SDS011;2463;49.948;8.472;2023-07-22T13:43:34;80.57;;;3.27;;
4895;SDS011;2463;49.948;8.472;2023-07-22T13:46:00;79.40;;;3.13;;
4895;SDS011;2463;49.948;8.472;2023-07-22T13:48:28;80.70;;;3.10;;
4895;SDS011;2463;49.948;8.472;2023-07-22T13:50:54;81.20;;;3.50;;
4895;SDS011;2463;49.948;8.472;2023-07-22T13:53:21;81.63;;;3.40;;
4895;SDS011;2463;49.948;8.472;2023-07-22T13:55:48;80.87;;;3.40;;
4895;SDS011;2463;49.948;8.472;2023-07-22T13:58:18;81.97;;;3.33;;
4895;SDS011;2463;49.948;8.472;2023-07-22T14:00:45;80.70;;;3.20;;
4895;SDS011;2463;49.948;8.472;2023-07-22T14:03:12;83.80;;;3.77;;
4895;SDS011;2463;49.948;8.472;2023-07-22T14:05:40;80.97;;;3.40;;
4895;SDS011;2463;49.948;8.472;2023-07-22T14:08:07;80.60;;;3.07;;
4895;SDS011;2463;49.948;8.472;2023-07-22T14:10:34;81.13;;;3.50;;
4895;SDS011;2463;49.948;8.472;2023-07-22T14:13:01;82.40;;;3.17;;
4895;SDS011;2463;49.948;8.472;2023-07-22T14:15:28;81.33;;;3.30;;
4895;SDS011;2463;49.948;8.472;2023-07-22T14:17:55;80.90;;;3.40;;
4895;SDS011;2463;49.948;8.472;2023-07-22T14:20:22;81.37;;;3.37;;
4895;SDS011;2463;49.948;8.472;2023-07-22T14:22:49;82.80;;;3.70;;
4895;SDS011;2463;49.948;8.472;2023-07-22T14:25:16;81.27;;;3.33;;
4895;SDS011;2463;49.948;8.472;2023-07-22T14:27:43;83.33;;;3.17;;
4895;SDS011;2463;49.948;8.472;2023-07-22T14:30:09;81.83;;;3.30;;
4895;SDS011;2463;49.948;8.472;2023-07-22T14:32:36;79.87;;;3.00;;
4895;SDS011;2463;49.948;8.472;2023-07-22T14:35:03;81.67;;;3.10;;
4895;SDS011;2463;49.948;8.472;2023-07-22T14:37:30;81.63;;;3.83;;
4895;SDS011;2463;49.948;8.472;2023-07-22T14:39:57;80.87;;;3.00;;
4895;SDS011;2463;49.948;8.472;2023-07-22T14:42:24;82.10;;;3.30;;
4895;SDS011;2463;49.948;8.472;2023-07-22T14:44:51;81.10;;;3.27;;
4895;SDS011;2463;49.948;8.472;2023-07-22T14:47:17;82.60;;;3.50;;
4895;SDS011;2463;49.948;8.472;2023-07-22T14:49:44;81.67;;;3.70;;
4895;SDS011;2463;49.948;8.472;2023-07-22T14:52:11;81.57;;;3.40;;
4895;SDS011;2463;49.948;8.472;2023-07-22T14:54:37;80.80;;;3.20;;
4895;SDS011;2463;49.948;8.472;2023-07-22T14:57:04;81.30;;;3.40;;
4895;SDS011;2463;49.948;8.472;2023-07-22T14:59:31;80.83;;;3.17;;
4895;SDS011;2463;49.948;8.472;2023-07-22T15:01:58;80.17;;;3.30;;
4895;SDS011;2463;49.948;8.472;2023-07-22T15:04:24;83.20;;;3.63;;
4895;SDS011;2463;49.948;8.472;2023-07-22T15:06:51;79.90;;;3.10;;
4895;SDS011;2463;49.948;8.472;2023-07-22T15:09:18;82.97;;;3.47;;
4895;SDS011;2463;49.948;8.472;2023-07-22T15:11:44;82.10;;;4.13;;
4895;SDS011;2463;49.948;8.472;2023-07-22T15:14:11;81.40;;;3.40;;
4895;SDS011;2463;49.948;8.472;2023-07-22T15:16:38;81.67;;;3.40;;
4895;SDS011;2463;49.948;8.472;2023-07-22T15:19:06;83.97;;;3.70;;
4895;SDS011;2463;49.948;8.472;2023-07-22T15:21:33;83.10;;;3.83;;